Time;durP1;ratioP1;P1;durP2;ratioP2;P2;SDS_P1;SDS_P2;PMS_P1;PMS_P2;Temp;Humidity;BMP_temperature;BMP_pressure;BME280_temperature;BME280_humidity;BME280_pressure;Samples;Min_cycle;Max_cycle;Signal;HPM_P1;HPM_P2
2019/10/02 00:04:53;;;;;;;1.3;1.2;;;;;;;14.63;100;94221.45;;;;
2019/10/02 00:09:54;;;;;;;2.05;1.4;;;;;;;14.67;100;94217.49;;;;
2019/10/02 00:14:55;;;;;;;2.05;1.4;;;;;;;14.67;100;94217.49;;;;
2019/10/02 00:19:55;;;;;;;1.55;1.3;;;;;;;14.43;100;94210.77;;;;
2019/10/02 00:21:00;;;;;;;1.55;1.3;;;;;;;14.43;100;94210.77;;;;
2019/10/02 00:22:06;;;;;;;1.55;1.3;;;;;;;14.43;100;94210.77;;;;
2019/10/02 00:25:07;;;;;;;1.55;1.2;;;;;;;14.49;100;94213.31;;;;
2019/10/02 00:26:10;;;;;;;1.5;1.3;;;;;;;14.53;100;94213.82;;;;
2019/10/02 00:27:11;;;;;;;1.5;1.3;;;;;;;14.53;100;94213.82;;;;
2019/10/02 00:28:12;;;;;;;1.5;1.3;;;;;;;14.53;100;94213.82;;;;
2019/10/02 00:29:13;;;;;;;1.5;1.3;;;;;;;14.53;100;94213.82;;;;
2019/10/02 00:30:14;;;;;;;1.5;1.3;;;;;;;14.53;100;94213.82;;;;
2019/10/02 00:31:17;;;;;;;1.5;1.3;;;;;;;14.53;100;94213.82;;;;
2019/10/02 00:32:18;;;;;;;1.5;1.3;;;;;;;14.53;100;94213.82;;;;
2019/10/02 00:33:19;;;;;;;1.5;1.3;;;;;;;14.53;100;94213.82;;;;
2019/10/02 00:34:20;;;;;;;1.5;1.3;;;;;;;14.53;100;94213.82;;;;
2019/10/02 00:35:21;;;;;;;1.5;1.3;;;;;;;14.53;100;94213.82;;;;
2019/10/02 00:36:24;;;;;;;1.3;1.1;;;;;;;14.33;100;94181.41;;;;
2019/10/02 00:37:25;;;;;;;1.3;1.1;;;;;;;14.33;100;94181.41;;;;
2019/10/02 00:38:26;;;;;;;1.5;1.1;;;;;;;14.36;100;94178.66;;;;
2019/10/02 00:39:27;;;;;;;1.5;1.1;;;;;;;14.36;100;94178.66;;;;
2019/10/02 00:40:29;;;;;;;1.5;1.1;;;;;;;14.36;100;94178.66;;;;
2019/10/02 00:41:40;;;;;;;1.8;1.3;;;;;;;14.41;100;94175.75;;;;
2019/10/02 00:42:42;;;;;;;1.8;1.3;;;;;;;14.41;100;94175.75;;;;
2019/10/02 00:43:43;;;;;;;1.7;1.3;;;;;;;14.46;100;94173.97;;;;
2019/10/02 00:44:45;;;;;;;1.7;1.3;;;;;;;14.46;100;94173.97;;;;
2019/10/02 00:45:46;;;;;;;1.7;1.3;;;;;;;14.46;100;94173.97;;;;
2019/10/02 00:46:49;;;;;;;1.3;1.2;;;;;;;14.5;100;94171.86;;;;
2019/10/02 00:47:50;;;;;;;1.3;1.2;;;;;;;14.5;100;94171.86;;;;
2019/10/02 00:48:51;;;;;;;1.3;1.2;;;;;;;14.5;100;94171.86;;;;
2019/10/02 00:49:53;;;;;;;1.4;1.3;;;;;;;14.52;100;94163.7;;;;
2019/10/02 00:50:54;;;;;;;1.4;1.3;;;;;;;14.52;100;94163.7;;;;
2019/10/02 00:51:56;;;;;;;1.4;1.3;;;;;;;14.52;100;94163.7;;;;
2019/10/02 00:52:57;;;;;;;1.4;1.3;;;;;;;14.52;100;94163.7;;;;
2019/10/02 00:53:58;;;;;;;1.4;1.3;;;;;;;14.52;100;94163.7;;;;
2019/10/02 00:55:00;;;;;;;1.4;1.3;;;;;;;14.52;100;94163.7;;;;
2019/10/02 00:56:01;;;;;;;1.4;1.3;;;;;;;14.52;100;94163.7;;;;
2019/10/02 00:57:07;;;;;;;1.4;1.3;;;;;;;14.52;100;94163.7;;;;
2019/10/02 00:58:08;;;;;;;1.4;1.3;;;;;;;14.52;100;94163.7;;;;
2019/10/02 00:59:10;;;;;;;1.4;1.3;;;;;;;14.52;100;94163.7;;;;
2019/10/02 01:00:11;;;;;;;1.2;1.1;;;;;;;14.23;100;94177.95;;;;
2019/10/02 01:01:15;;;;;;;1.2;1.1;;;;;;;14.23;100;94177.95;;;;
2019/10/02 01:02:16;;;;;;;1.3;1.2;;;;;;;14.23;100;94161.66;;;;
2019/10/02 01:03:18;;;;;;;1.3;1.2;;;;;;;14.23;100;94161.66;;;;
2019/10/02 01:04:19;;;;;;;1.3;1.2;;;;;;;14.23;100;94161.66;;;;
2019/10/02 01:05:20;;;;;;;1.3;1.2;;;;;;;14.29;100;94168.68;;;;
2019/10/02 01:06:22;;;;;;;1.3;1.2;;;;;;;14.29;100;94168.68;;;;
2019/10/02 01:07:23;;;;;;;1.3;1.2;;;;;;;14.29;100;94168.68;;;;
2019/10/02 01:08:25;;;;;;;1.45;1.1;;;;;;;14.35;100;94164.83;;;;
2019/10/02 01:09:26;;;;;;;1.45;1.1;;;;;;;14.35;100;94164.83;;;;
2019/10/02 01:10:28;;;;;;;1.45;1.1;;;;;;;14.35;100;94164.83;;;;
2019/10/02 01:11:31;;;;;;;1.45;1.1;;;;;;;14.35;100;94164.83;;;;
2019/10/02 01:12:32;;;;;;;1.45;1.1;;;;;;;14.35;100;94164.83;;;;
2019/10/02 01:13:33;;;;;;;1.45;1.1;;;;;;;14.35;100;94164.83;;;;
2019/10/02 01:14:35;;;;;;;1.45;1.1;;;;;;;14.35;100;94164.83;;;;
2019/10/02 01:15:36;;;;;;;1.45;1.1;;;;;;;14.35;100;94164.83;;;;
2019/10/02 01:16:37;;;;;;;1.45;1.1;;;;;;;14.35;100;94164.83;;;;
2019/10/02 01:17:39;;;;;;;1.45;1.1;;;;;;;14.35;100;94164.83;;;;
2019/10/02 01:18:40;;;;;;;2.2;1.1;;;;;;;14.14;100;94160.5;;;;
2019/10/02 01:19:41;;;;;;;2.2;1.1;;;;;;;14.14;100;94160.5;;;;
2019/10/02 01:20:43;;;;;;;2.2;1.1;;;;;;;14.14;100;94160.5;;;;
2019/10/02 01:21:44;;;;;;;1.65;1.2;;;;;;;14.15;100;94162.14;;;;
2019/10/02 01:22:45;;;;;;;1.65;1.2;;;;;;;14.15;100;94162.14;;;;
2019/10/02 01:23:46;;;;;;;1.65;1.2;;;;;;;14.15;100;94162.14;;;;
2019/10/02 01:24:48;;;;;;;1.65;1.2;;;;;;;14.15;100;94162.14;;;;
2019/10/02 01:25:49;;;;;;;1.65;1.2;;;;;;;14.15;100;94162.14;;;;
2019/10/02 01:26:50;;;;;;;1.65;1.2;;;;;;;14.15;100;94162.14;;;;
2019/10/02 01:27:51;;;;;;;1.65;1.2;;;;;;;14.15;100;94162.14;;;;
2019/10/02 01:28:52;;;;;;;1.65;1.2;;;;;;;14.15;100;94162.14;;;;
2019/10/02 01:29:54;;;;;;;1.65;1.2;;;;;;;14.15;100;94162.14;;;;
2019/10/02 01:30:55;;;;;;;1.65;1.2;;;;;;;14.15;100;94162.14;;;;
2019/10/02 01:31:56;;;;;;;1.4;1.3;;;;;;;13.99;100;94150.2;;;;
2019/10/02 01:32:57;;;;;;;1.4;1.3;;;;;;;13.99;100;94150.2;;;;
2019/10/02 01:33:58;;;;;;;1.4;1.3;;;;;;;13.99;100;94150.2;;;;
2019/10/02 01:34:59;;;;;;;1.3;1;;;;;;;14.02;100;94148.8;;;;
2019/10/02 01:36:01;;;;;;;1.3;1;;;;;;;14.02;100;94148.8;;;;
2019/10/02 01:37:03;;;;;;;1.85;1.2;;;;;;;14.09;100;94147.92;;;;
2019/10/02 01:38:04;;;;;;;1.85;1.2;;;;;;;14.09;100;94147.92;;;;
2019/10/02 01:39:05;;;;;;;1.85;1.2;;;;;;;14.09;100;94147.92;;;;
2019/10/02 01:40:07;;;;;;;1.85;1.3;;;;;;;14.16;100;94141.2;;;;
2019/10/02 01:41:10;;;;;;;1.85;1.3;;;;;;;14.16;100;94141.2;;;;
2019/10/02 01:42:13;;;;;;;1.85;1.3;;;;;;;14.16;100;94141.2;;;;
2019/10/02 01:43:14;;;;;;;1.85;1.3;;;;;;;14.16;100;94141.2;;;;
2019/10/02 01:44:15;;;;;;;1.85;1.3;;;;;;;14.16;100;94141.2;;;;
2019/10/02 01:45:17;;;;;;;1.85;1.3;;;;;;;14.16;100;94141.2;;;;
2019/10/02 01:46:18;;;;;;;1.85;1.3;;;;;;;14.16;100;94141.2;;;;
2019/10/02 01:47:19;;;;;;;1.85;1.3;;;;;;;14.16;100;94141.2;;;;
2019/10/02 01:48:57;;;;;;;1.85;1.3;;;;;;;14.16;100;94141.2;;;;
2019/10/02 01:50:02;;;;;;;1.5;1.3;;;;;;;13.96;100;94125.5;;;;
2019/10/02 01:51:13;;;;;;;1.5;1.3;;;;;;;13.96;100;94125.5;;;;
2019/10/02 01:52:17;;;;;;;1.5;1.3;;;;;;;13.96;100;94125.5;;;;
2019/10/02 01:53:18;;;;;;;1.65;1.2;;;;;;;13.97;100;94125.78;;;;
2019/10/02 01:54:19;;;;;;;1.65;1.2;;;;;;;13.97;100;94125.78;;;;
2019/10/02 01:55:21;;;;;;;1.65;1.2;;;;;;;13.97;100;94125.78;;;;
2019/10/02 01:56:23;;;;;;;1.65;1.2;;;;;;;13.97;100;94125.78;;;;
2019/10/02 01:57:24;;;;;;;1.65;1.2;;;;;;;13.97;100;94125.78;;;;
2019/10/02 01:58:25;;;;;;;1.65;1.2;;;;;;;13.97;100;94125.78;;;;
2019/10/02 01:59:26;;;;;;;1.65;1.2;;;;;;;13.97;100;94125.78;;;;
2019/10/02 02:00:27;;;;;;;1.65;1.2;;;;;;;13.97;100;94125.78;;;;
2019/10/02 02:01:47;;;;;;;1.65;1.2;;;;;;;13.97;100;94125.78;;;;
2019/10/02 02:02:49;;;;;;;1.65;1.2;;;;;;;13.97;100;94125.78;;;;
2019/10/02 02:03:51;;;;;;;1.6;1.25;;;;;;;13.83;100;94129.3;;;;
2019/10/02 02:04:52;;;;;;;1.6;1.25;;;;;;;13.83;100;94129.3;;;;
2019/10/02 02:05:53;;;;;;;1.7;1.3;;;;;;;13.86;100;94122.49;;;;
2019/10/02 02:06:54;;;;;;;1.7;1.3;;;;;;;13.86;100;94122.49;;;;
2019/10/02 02:07:56;;;;;;;1.7;1.3;;;;;;;13.86;100;94122.49;;;;
2019/10/02 02:08:57;;;;;;;1.7;1.3;;;;;;;13.86;100;94122.49;;;;
2019/10/02 02:09:58;;;;;;;1.7;1.3;;;;;;;13.86;100;94122.49;;;;
2019/10/02 02:10:59;;;;;;;1.7;1.3;;;;;;;13.86;100;94122.49;;;;
2019/10/02 02:12:00;;;;;;;1.7;1.3;;;;;;;13.86;100;94122.49;;;;
2019/10/02 02:13:03;;;;;;;1.7;1.3;;;;;;;13.86;100;94122.49;;;;
2019/10/02 02:14:04;;;;;;;1.7;1.3;;;;;;;13.86;100;94122.49;;;;
2019/10/02 02:15:05;;;;;;;1.7;1.3;;;;;;;13.86;100;94122.49;;;;
2019/10/02 02:16:07;;;;;;;1.7;1.3;;;;;;;13.86;100;94122.49;;;;
2019/10/02 02:17:08;;;;;;;1.3;1.2;;;;;;;13.75;100;94123.66;;;;
2019/10/02 02:18:09;;;;;;;1.3;1.2;;;;;;;13.75;100;94123.66;;;;
2019/10/02 02:19:11;;;;;;;1.3;1.2;;;;;;;13.75;100;94123.66;;;;
2019/10/02 02:20:12;;;;;;;1.3;1.2;;;;;;;13.75;100;94123.66;;;;
2019/10/02 02:21:41;;;;;;;1.3;1.2;;;;;;;13.75;100;94123.66;;;;
2019/10/02 02:22:43;;;;;;;1.3;1.2;;;;;;;13.75;100;94123.66;;;;
2019/10/02 02:23:44;;;;;;;1.3;1.2;;;;;;;13.75;100;94123.66;;;;
2019/10/02 02:24:45;;;;;;;1.3;1.2;;;;;;;13.75;100;94123.66;;;;
2019/10/02 02:25:46;;;;;;;1.3;1.2;;;;;;;13.75;100;94123.66;;;;
2019/10/02 02:26:47;;;;;;;1.3;1.2;;;;;;;13.75;100;94123.66;;;;
2019/10/02 02:27:49;;;;;;;1.6;1.1;;;;;;;13.69;100;94112.44;;;;
2019/10/02 02:28:50;;;;;;;1.6;1.1;;;;;;;13.69;100;94112.44;;;;
2019/10/02 02:29:51;;;;;;;1.6;1.1;;;;;;;13.69;100;94112.44;;;;
2019/10/02 02:30:52;;;;;;;1.6;1.1;;;;;;;13.69;100;94112.44;;;;
2019/10/02 02:31:54;;;;;;;1.6;1.1;;;;;;;13.69;100;94112.44;;;;
2019/10/02 02:32:55;;;;;;;1.6;1.1;;;;;;;13.69;100;94112.44;;;;
2019/10/02 02:33:56;;;;;;;1.6;1.1;;;;;;;13.69;100;94112.44;;;;
2019/10/02 02:34:57;;;;;;;1.6;1.1;;;;;;;13.69;100;94112.44;;;;
2019/10/02 02:35:58;;;;;;;1.6;1.1;;;;;;;13.69;100;94112.44;;;;
2019/10/02 02:36:59;;;;;;;1.6;1.1;;;;;;;13.69;100;94112.44;;;;
2019/10/02 02:38:02;;;;;;;1.55;1.35;;;;;;;13.61;100;94108.04;;;;
2019/10/02 02:39:04;;;;;;;1.55;1.35;;;;;;;13.61;100;94108.04;;;;
2019/10/02 02:40:07;;;;;;;1.55;1.35;;;;;;;13.61;100;94108.04;;;;
2019/10/02 02:41:09;;;;;;;1.2;1.1;;;;;;;13.65;100;94104.63;;;;
2019/10/02 02:42:10;;;;;;;1.2;1.1;;;;;;;13.65;100;94104.63;;;;
2019/10/02 02:43:11;;;;;;;1.2;1.1;;;;;;;13.65;100;94104.63;;;;
2019/10/02 02:44:13;;;;;;;1.2;1.1;;;;;;;13.65;100;94104.63;;;;
2019/10/02 02:45:16;;;;;;;1.2;1.1;;;;;;;13.65;100;94104.63;;;;
2019/10/02 02:46:18;;;;;;;1.2;1.1;;;;;;;13.65;100;94104.63;;;;
2019/10/02 02:47:19;;;;;;;1.2;1.1;;;;;;;13.65;100;94104.63;;;;
2019/10/02 02:48:20;;;;;;;1.2;1.1;;;;;;;13.65;100;94104.63;;;;
2019/10/02 02:49:21;;;;;;;1.2;1.1;;;;;;;13.65;100;94104.63;;;;
2019/10/02 02:50:22;;;;;;;1.2;1.1;;;;;;;13.65;100;94104.63;;;;
2019/10/02 02:51:33;;;;;;;2.45;1.1;;;;;;;13.63;100;94102.74;;;;
2019/10/02 02:52:36;;;;;;;2.45;1.1;;;;;;;13.63;100;94102.74;;;;
2019/10/02 02:53:37;;;;;;;2.45;1.1;;;;;;;13.63;100;94102.74;;;;
2019/10/02 02:54:38;;;;;;;2.45;1.1;;;;;;;13.63;100;94102.74;;;;
2019/10/02 02:55:39;;;;;;;2.45;1.1;;;;;;;13.63;100;94102.74;;;;
2019/10/02 02:56:40;;;;;;;2.45;1.1;;;;;;;13.63;100;94102.74;;;;
2019/10/02 02:57:42;;;;;;;2.45;1.1;;;;;;;13.63;100;94102.74;;;;
2019/10/02 02:58:43;;;;;;;2.45;1.1;;;;;;;13.63;100;94102.74;;;;
2019/10/02 02:59:44;;;;;;;2.45;1.1;;;;;;;13.63;100;94102.74;;;;
2019/10/02 03:00:45;;;;;;;2.45;1.1;;;;;;;13.63;100;94102.74;;;;
2019/10/02 03:02:08;;;;;;;2.45;1.1;;;;;;;13.63;100;94102.74;;;;
2019/10/02 03:03:12;;;;;;;2.45;1.1;;;;;;;13.63;100;94102.74;;;;
2019/10/02 03:09:23;;;;;;;2.45;1.1;;;;;;;13.63;100;94102.74;;;;
2019/10/02 03:10:24;;;;;;;2.45;1.1;;;;;;;13.63;100;94102.74;;;;
2019/10/02 03:11:28;;;;;;;2.45;1.1;;;;;;;13.63;100;94102.74;;;;
2019/10/02 03:12:29;;;;;;;1.3;1.2;;;;;;;13.63;100;94095.14;;;;
2019/10/02 03:13:30;;;;;;;1.3;1.2;;;;;;;13.63;100;94095.14;;;;
2019/10/02 03:14:32;;;;;;;1.3;1.2;;;;;;;13.63;100;94095.14;;;;
2019/10/02 03:15:33;;;;;;;1.65;1.1;;;;;;;13.67;100;94090.78;;;;
2019/10/02 03:16:34;;;;;;;1.65;1.1;;;;;;;13.67;100;94090.78;;;;
2019/10/02 03:17:35;;;;;;;1.65;1.1;;;;;;;13.67;100;94090.78;;;;
2019/10/02 03:18:37;;;;;;;1.65;1.1;;;;;;;13.67;100;94090.78;;;;
2019/10/02 03:19:38;;;;;;;1.65;1.1;;;;;;;13.67;100;94090.78;;;;
2019/10/02 03:20:39;;;;;;;1.65;1.1;;;;;;;13.67;100;94090.78;;;;
2019/10/02 03:21:42;;;;;;;1.65;1.1;;;;;;;13.67;100;94090.78;;;;
2019/10/02 03:22:43;;;;;;;1.65;1.1;;;;;;;13.67;100;94090.78;;;;
2019/10/02 03:23:45;;;;;;;1.65;1.1;;;;;;;13.67;100;94090.78;;;;
2019/10/02 03:24:46;;;;;;;1.65;1.1;;;;;;;13.67;100;94090.78;;;;
2019/10/02 03:25:47;;;;;;;1.5;1.2;;;;;;;13.58;100;94090.17;;;;
2019/10/02 03:26:53;;;;;;;1.5;1.2;;;;;;;13.58;100;94090.17;;;;
2019/10/02 03:27:55;;;;;;;1.5;1.2;;;;;;;13.58;100;94090.17;;;;
2019/10/02 03:28:56;;;;;;;1.5;1.2;;;;;;;13.58;100;94090.17;;;;
2019/10/02 03:29:57;;;;;;;1.5;1.2;;;;;;;13.58;100;94090.17;;;;
2019/10/02 03:31:01;;;;;;;1.5;1.2;;;;;;;13.58;100;94090.17;;;;
2019/10/02 03:32:07;;;;;;;1.5;1.2;;;;;;;13.58;100;94090.17;;;;
2019/10/02 03:33:08;;;;;;;1.5;1.2;;;;;;;13.58;100;94090.17;;;;
2019/10/02 03:34:09;;;;;;;1.5;1.2;;;;;;;13.58;100;94090.17;;;;
2019/10/02 03:35:11;;;;;;;1.5;1.2;;;;;;;13.58;100;94090.17;;;;
2019/10/02 03:36:19;;;;;;;1.7;1.1;;;;;;;13.53;100;94077.98;;;;
2019/10/02 03:37:20;;;;;;;1.7;1.1;;;;;;;13.53;100;94077.98;;;;
2019/10/02 03:38:21;;;;;;;1.7;1.1;;;;;;;13.53;100;94077.98;;;;
2019/10/02 03:39:23;;;;;;;1.7;1.1;;;;;;;13.53;100;94077.98;;;;
2019/10/02 03:40:24;;;;;;;1.7;1.1;;;;;;;13.53;100;94077.98;;;;
2019/10/02 03:41:31;;;;;;;1.7;1.1;;;;;;;13.53;100;94077.98;;;;
2019/10/02 03:42:32;;;;;;;1.7;1.1;;;;;;;13.53;100;94077.98;;;;
2019/10/02 03:43:33;;;;;;;1.7;1.1;;;;;;;13.53;100;94077.98;;;;
2019/10/02 03:44:34;;;;;;;1.7;1.1;;;;;;;13.53;100;94077.98;;;;
2019/10/02 03:45:35;;;;;;;1.7;1.1;;;;;;;13.53;100;94077.98;;;;
2019/10/02 03:46:37;;;;;;;1.7;1.1;;;;;;;13.53;100;94077.98;;;;
2019/10/02 03:47:38;;;;;;;1.3;1.2;;;;;;;13.42;100;94069.65;;;;
2019/10/02 03:48:39;;;;;;;1.3;1.2;;;;;;;13.42;100;94069.65;;;;
2019/10/02 03:49:40;;;;;;;1.3;1.2;;;;;;;13.42;100;94069.65;;;;
2019/10/02 03:50:41;;;;;;;1.3;1.2;;;;;;;13.42;100;94069.65;;;;
2019/10/02 03:51:49;;;;;;;1.3;1.2;;;;;;;13.42;100;94069.65;;;;
2019/10/02 03:52:51;;;;;;;1.3;1.2;;;;;;;13.42;100;94069.65;;;;
2019/10/02 03:53:52;;;;;;;1.3;1.2;;;;;;;13.42;100;94069.65;;;;
2019/10/02 03:54:53;;;;;;;1.3;1.2;;;;;;;13.42;100;94069.65;;;;
2019/10/02 03:55:54;;;;;;;1.3;1.2;;;;;;;13.42;100;94069.65;;;;
2019/10/02 03:56:55;;;;;;;1.3;1.2;;;;;;;13.42;100;94069.65;;;;
2019/10/02 03:57:56;;;;;;;1.2;1.1;;;;;;;13.41;100;94082.01;;;;
2019/10/02 03:58:57;;;;;;;1.2;1.1;;;;;;;13.41;100;94082.01;;;;
2019/10/02 03:59:59;;;;;;;1.2;1.1;;;;;;;13.41;100;94082.01;;;;
2019/10/02 04:01:00;;;;;;;1.2;1.1;;;;;;;13.41;100;94082.01;;;;
2019/10/02 04:02:01;;;;;;;1.2;1.1;;;;;;;13.41;100;94082.01;;;;
2019/10/02 04:03:02;;;;;;;1.2;1.1;;;;;;;13.41;100;94082.01;;;;
2019/10/02 04:04:04;;;;;;;1.2;1.1;;;;;;;13.41;100;94082.01;;;;
2019/10/02 04:05:05;;;;;;;1.2;1.1;;;;;;;13.41;100;94082.01;;;;
2019/10/02 04:06:07;;;;;;;1.2;1.1;;;;;;;13.41;100;94082.01;;;;
2019/10/02 04:07:08;;;;;;;1.2;1.1;;;;;;;13.41;100;94082.01;;;;
2019/10/02 04:08:09;;;;;;;1.25;1.1;;;;;;;13.36;100;94073.52;;;;
2019/10/02 04:09:10;;;;;;;1.25;1.1;;;;;;;13.36;100;94073.52;;;;
2019/10/02 04:10:11;;;;;;;1.25;1.1;;;;;;;13.36;100;94073.52;;;;
2019/10/02 04:11:37;;;;;;;1.25;1.1;;;;;;;13.36;100;94073.52;;;;
2019/10/02 04:12:39;;;;;;;1.25;1.1;;;;;;;13.36;100;94073.52;;;;
2019/10/02 04:13:40;;;;;;;1.25;1.1;;;;;;;13.36;100;94073.52;;;;
2019/10/02 04:14:41;;;;;;;1.25;1.1;;;;;;;13.36;100;94073.52;;;;
2019/10/02 04:15:42;;;;;;;1.25;1.1;;;;;;;13.36;100;94073.52;;;;
2019/10/02 04:16:43;;;;;;;1.25;1.1;;;;;;;13.36;100;94073.52;;;;
2019/10/02 04:17:44;;;;;;;1.25;1.1;;;;;;;13.36;100;94073.52;;;;
2019/10/02 04:18:46;;;;;;;1.1;1;;;;;;;13.39;100;94072.94;;;;
2019/10/02 04:19:47;;;;;;;1.1;1;;;;;;;13.39;100;94072.94;;;;
2019/10/02 04:20:48;;;;;;;1.1;1;;;;;;;13.39;100;94072.94;;;;
2019/10/02 04:21:49;;;;;;;1.1;1;;;;;;;13.39;100;94072.94;;;;
2019/10/02 04:22:50;;;;;;;1.1;1;;;;;;;13.39;100;94072.94;;;;
2019/10/02 04:23:51;;;;;;;1.1;1;;;;;;;13.39;100;94072.94;;;;
2019/10/02 04:24:53;;;;;;;1.1;1;;;;;;;13.39;100;94072.94;;;;
2019/10/02 04:25:54;;;;;;;1.1;1;;;;;;;13.39;100;94072.94;;;;
2019/10/02 04:26:59;;;;;;;1.1;1;;;;;;;13.39;100;94072.94;;;;
2019/10/02 04:28:00;;;;;;;1.1;1;;;;;;;13.39;100;94072.94;;;;
2019/10/02 04:29:01;;;;;;;1.1;1;;;;;;;13.39;100;94072.94;;;;
2019/10/02 04:30:04;;;;;;;1.45;1.1;;;;;;;13.31;100;94079.39;;;;
2019/10/02 04:31:08;;;;;;;1.45;1.1;;;;;;;13.31;100;94079.39;;;;
2019/10/02 04:32:40;;;;;;;1.45;1.1;;;;;;;13.31;100;94079.39;;;;
2019/10/02 04:33:41;;;;;;;1.45;1.1;;;;;;;13.31;100;94079.39;;;;
2019/10/02 04:34:42;;;;;;;1.45;1.1;;;;;;;13.31;100;94079.39;;;;
2019/10/02 04:35:43;;;;;;;1.45;1.1;;;;;;;13.31;100;94079.39;;;;
2019/10/02 04:36:45;;;;;;;1.45;1.1;;;;;;;13.31;100;94079.39;;;;
2019/10/02 04:37:46;;;;;;;1.45;1.1;;;;;;;13.31;100;94079.39;;;;
2019/10/02 04:38:54;;;;;;;1.45;1.1;;;;;;;13.31;100;94079.39;;;;
2019/10/02 04:40:46;;;;;;;1.25;1;;;;;;;13.29;100;94079.24;;;;
2019/10/02 04:42:02;;;;;;;1.25;1;;;;;;;13.29;100;94079.24;;;;
2019/10/02 04:43:04;;;;;;;1.25;1;;;;;;;13.29;100;94079.24;;;;
2019/10/02 04:44:05;;;;;;;1.25;1;;;;;;;13.29;100;94079.24;;;;
2019/10/02 04:45:06;;;;;;;1.25;1;;;;;;;13.29;100;94079.24;;;;
2019/10/02 04:46:11;;;;;;;1.25;1;;;;;;;13.29;100;94079.24;;;;
2019/10/02 04:47:12;;;;;;;1.25;1;;;;;;;13.29;100;94079.24;;;;
2019/10/02 04:48:14;;;;;;;1.25;1;;;;;;;13.29;100;94079.24;;;;
2019/10/02 04:49:15;;;;;;;1.25;1;;;;;;;13.29;100;94079.24;;;;
2019/10/02 04:50:16;;;;;;;1.25;1;;;;;;;13.29;100;94079.24;;;;
2019/10/02 04:51:18;;;;;;;1.9;1.2;;;;;;;13.22;100;94065.2;;;;
2019/10/02 04:52:19;;;;;;;1.9;1.2;;;;;;;13.22;100;94065.2;;;;
2019/10/02 04:53:20;;;;;;;1.9;1.2;;;;;;;13.22;100;94065.2;;;;
2019/10/02 04:54:21;;;;;;;1.9;1.2;;;;;;;13.22;100;94065.2;;;;
2019/10/02 04:55:23;;;;;;;1.9;1.2;;;;;;;13.22;100;94065.2;;;;
2019/10/02 04:56:24;;;;;;;1.9;1.2;;;;;;;13.22;100;94065.2;;;;
2019/10/02 04:57:25;;;;;;;1.9;1.2;;;;;;;13.22;100;94065.2;;;;
2019/10/02 04:58:27;;;;;;;1.9;1.2;;;;;;;13.22;100;94065.2;;;;
2019/10/02 04:59:29;;;;;;;1.9;1.2;;;;;;;13.22;100;94065.2;;;;
2019/10/02 05:00:30;;;;;;;1.9;1.2;;;;;;;13.22;100;94065.2;;;;
2019/10/02 05:01:33;;;;;;;1.95;1.15;;;;;;;13.22;100;94073.9;;;;
2019/10/02 05:02:34;;;;;;;1.95;1.15;;;;;;;13.22;100;94073.9;;;;
2019/10/02 05:03:36;;;;;;;1.95;1.15;;;;;;;13.22;100;94073.9;;;;
2019/10/02 05:04:37;;;;;;;1.95;1.15;;;;;;;13.22;100;94073.9;;;;
2019/10/02 05:05:38;;;;;;;1.95;1.15;;;;;;;13.22;100;94073.9;;;;
2019/10/02 05:06:40;;;;;;;1.95;1.15;;;;;;;13.22;100;94073.9;;;;
2019/10/02 05:07:41;;;;;;;1.95;1.15;;;;;;;13.22;100;94073.9;;;;
2019/10/02 05:08:42;;;;;;;1.95;1.15;;;;;;;13.22;100;94073.9;;;;
2019/10/02 05:09:43;;;;;;;1.95;1.15;;;;;;;13.22;100;94073.9;;;;
2019/10/02 05:10:44;;;;;;;1.95;1.15;;;;;;;13.22;100;94073.9;;;;
2019/10/02 05:11:47;;;;;;;2;1.1;;;;;;;13.18;100;94076.9;;;;
2019/10/02 05:12:48;;;;;;;2;1.1;;;;;;;13.18;100;94076.9;;;;
2019/10/02 05:13:49;;;;;;;2;1.1;;;;;;;13.18;100;94076.9;;;;
2019/10/02 05:14:51;;;;;;;2;1.1;;;;;;;13.18;100;94076.9;;;;
2019/10/02 05:15:52;;;;;;;2;1.1;;;;;;;13.18;100;94076.9;;;;
2019/10/02 05:16:53;;;;;;;2;1.1;;;;;;;13.18;100;94076.9;;;;
2019/10/02 05:17:55;;;;;;;2;1.1;;;;;;;13.18;100;94076.9;;;;
2019/10/02 05:18:56;;;;;;;2;1.1;;;;;;;13.18;100;94076.9;;;;
2019/10/02 05:19:57;;;;;;;2;1.1;;;;;;;13.18;100;94076.9;;;;
2019/10/02 05:20:58;;;;;;;2;1.1;;;;;;;13.18;100;94076.9;;;;
2019/10/02 05:21:59;;;;;;;2;1.1;;;;;;;13.18;100;94076.9;;;;
2019/10/02 05:23:00;;;;;;;3.75;1.2;;;;;;;13.21;100;94076.33;;;;
2019/10/02 05:24:02;;;;;;;3.75;1.2;;;;;;;13.21;100;94076.33;;;;
2019/10/02 05:25:03;;;;;;;3.75;1.2;;;;;;;13.21;100;94076.33;;;;
2019/10/02 05:26:05;;;;;;;3.75;1.2;;;;;;;13.21;100;94076.33;;;;
2019/10/02 05:27:06;;;;;;;3.75;1.2;;;;;;;13.21;100;94076.33;;;;
2019/10/02 05:28:07;;;;;;;3.75;1.2;;;;;;;13.21;100;94076.33;;;;
2019/10/02 05:29:08;;;;;;;3.75;1.2;;;;;;;13.21;100;94076.33;;;;
2019/10/02 05:30:10;;;;;;;3.75;1.2;;;;;;;13.21;100;94076.33;;;;
2019/10/02 05:31:31;;;;;;;3.75;1.2;;;;;;;13.21;100;94076.33;;;;
2019/10/02 05:32:32;;;;;;;3.75;1.2;;;;;;;13.21;100;94076.33;;;;
2019/10/02 05:33:33;;;;;;;1.2;1.1;;;;;;;13.21;100;94091.24;;;;
2019/10/02 05:34:34;;;;;;;1.2;1.1;;;;;;;13.21;100;94091.24;;;;
2019/10/02 05:35:35;;;;;;;1.2;1.1;;;;;;;13.21;100;94091.24;;;;
2019/10/02 05:36:37;;;;;;;1.2;1.1;;;;;;;13.21;100;94091.24;;;;
2019/10/02 05:37:38;;;;;;;1.2;1.1;;;;;;;13.21;100;94091.24;;;;
2019/10/02 05:38:39;;;;;;;1.2;1.1;;;;;;;13.21;100;94091.24;;;;
2019/10/02 05:39:40;;;;;;;1.2;1.1;;;;;;;13.21;100;94091.24;;;;
2019/10/02 05:40:42;;;;;;;1.2;1.1;;;;;;;13.21;100;94091.24;;;;
2019/10/02 05:41:43;;;;;;;1.2;1.1;;;;;;;13.21;100;94091.24;;;;
2019/10/02 05:42:44;;;;;;;1.2;1.1;;;;;;;13.21;100;94091.24;;;;
2019/10/02 05:43:45;;;;;;;2.25;1.3;;;;;;;13.32;100;94098.22;;;;
2019/10/02 05:44:47;;;;;;;2.25;1.3;;;;;;;13.32;100;94098.22;;;;
2019/10/02 05:45:48;;;;;;;2.25;1.3;;;;;;;13.32;100;94098.22;;;;
2019/10/02 05:46:59;;;;;;;2.25;1.3;;;;;;;13.32;100;94098.22;;;;
2019/10/02 05:48:38;;;;;;;2.25;1.3;;;;;;;13.32;100;94098.22;;;;
2019/10/02 05:49:45;;;;;;;2.25;1.3;;;;;;;13.32;100;94098.22;;;;
2019/10/02 05:50:46;;;;;;;2.25;1.3;;;;;;;13.32;100;94098.22;;;;
2019/10/02 05:51:49;;;;;;;2.25;1.3;;;;;;;13.32;100;94098.22;;;;
2019/10/02 05:52:51;;;;;;;2.25;1.3;;;;;;;13.32;100;94098.22;;;;
2019/10/02 05:53:52;;;;;;;2.25;1.3;;;;;;;13.32;100;94098.22;;;;
2019/10/02 05:54:54;;;;;;;1.6;1.3;;;;;;;13.33;100;94105.65;;;;
2019/10/02 05:55:55;;;;;;;1.6;1.3;;;;;;;13.33;100;94105.65;;;;
2019/10/02 05:56:57;;;;;;;1.6;1.3;;;;;;;13.33;100;94105.65;;;;
2019/10/02 05:57:58;;;;;;;1.6;1.3;;;;;;;13.33;100;94105.65;;;;
2019/10/02 05:58:59;;;;;;;1.6;1.3;;;;;;;13.33;100;94105.65;;;;
2019/10/02 06:00:00;;;;;;;1.6;1.3;;;;;;;13.33;100;94105.65;;;;
2019/10/02 06:01:06;;;;;;;1.6;1.3;;;;;;;13.33;100;94105.65;;;;
2019/10/02 06:02:12;;;;;;;1.6;1.3;;;;;;;13.33;100;94105.65;;;;
2019/10/02 06:03:14;;;;;;;1.6;1.3;;;;;;;13.33;100;94105.65;;;;
2019/10/02 06:04:15;;;;;;;1.6;1.3;;;;;;;13.33;100;94105.65;;;;
2019/10/02 06:05:16;;;;;;;3;1.5;;;;;;;13.39;100;94113.2;;;;
2019/10/02 06:06:18;;;;;;;3;1.5;;;;;;;13.39;100;94113.2;;;;
2019/10/02 06:07:19;;;;;;;3;1.5;;;;;;;13.39;100;94113.2;;;;
2019/10/02 06:08:20;;;;;;;3;1.5;;;;;;;13.39;100;94113.2;;;;
2019/10/02 06:09:21;;;;;;;3;1.5;;;;;;;13.39;100;94113.2;;;;
2019/10/02 06:10:23;;;;;;;3;1.5;;;;;;;13.39;100;94113.2;;;;
2019/10/02 06:11:25;;;;;;;3;1.5;;;;;;;13.39;100;94113.2;;;;
2019/10/02 06:12:27;;;;;;;3;1.5;;;;;;;13.39;100;94113.2;;;;
2019/10/02 06:13:28;;;;;;;3;1.5;;;;;;;13.39;100;94113.2;;;;
2019/10/02 06:14:29;;;;;;;3;1.5;;;;;;;13.39;100;94113.2;;;;
2019/10/02 06:15:30;;;;;;;2.15;1.3;;;;;;;13.37;100;94128.94;;;;
2019/10/02 06:16:31;;;;;;;2.15;1.3;;;;;;;13.37;100;94128.94;;;;
2019/10/02 06:17:33;;;;;;;2.15;1.3;;;;;;;13.37;100;94128.94;;;;
2019/10/02 06:18:34;;;;;;;2.15;1.3;;;;;;;13.37;100;94128.94;;;;
2019/10/02 06:19:36;;;;;;;2.15;1.3;;;;;;;13.37;100;94128.94;;;;
2019/10/02 06:20:37;;;;;;;2.15;1.3;;;;;;;13.37;100;94128.94;;;;
2019/10/02 06:21:38;;;;;;;2.15;1.3;;;;;;;13.37;100;94128.94;;;;
2019/10/02 06:22:39;;;;;;;2.15;1.3;;;;;;;13.37;100;94128.94;;;;
2019/10/02 06:23:40;;;;;;;2.15;1.3;;;;;;;13.37;100;94128.94;;;;
2019/10/02 06:24:42;;;;;;;2.15;1.3;;;;;;;13.37;100;94128.94;;;;
2019/10/02 06:25:43;;;;;;;2.15;1.3;;;;;;;13.37;100;94128.94;;;;
2019/10/02 06:26:44;;;;;;;2.15;1.3;;;;;;;13.37;100;94128.94;;;;
2019/10/02 06:27:45;;;;;;;2.15;1.3;;;;;;;13.37;100;94128.94;;;;
2019/10/02 06:28:46;;;;;;;2.15;1.3;;;;;;;13.37;100;94128.94;;;;
2019/10/02 06:29:47;;;;;;;2.15;1.3;;;;;;;13.37;100;94128.94;;;;
2019/10/02 06:30:49;;;;;;;2.15;1.3;;;;;;;13.37;100;94128.94;;;;
2019/10/02 06:31:50;;;;;;;2.15;1.3;;;;;;;13.37;100;94128.94;;;;
2019/10/02 06:32:51;;;;;;;2.15;1.3;;;;;;;13.37;100;94128.94;;;;
2019/10/02 06:33:52;;;;;;;2.15;1.3;;;;;;;13.37;100;94128.94;;;;
2019/10/02 06:34:53;;;;;;;2.15;1.3;;;;;;;13.37;100;94128.94;;;;
2019/10/02 06:35:54;;;;;;;2.15;1.3;;;;;;;13.37;100;94128.94;;;;
2019/10/02 06:36:55;;;;;;;2.35;1.4;;;;;;;13.47;100;94142.86;;;;
2019/10/02 06:37:57;;;;;;;2.35;1.4;;;;;;;13.47;100;94142.86;;;;
2019/10/02 06:38:58;;;;;;;2.35;1.4;;;;;;;13.47;100;94142.86;;;;
2019/10/02 06:39:59;;;;;;;2.35;1.4;;;;;;;13.47;100;94142.86;;;;
2019/10/02 06:41:00;;;;;;;2.35;1.4;;;;;;;13.47;100;94142.86;;;;
2019/10/02 06:42:01;;;;;;;2.35;1.4;;;;;;;13.47;100;94142.86;;;;
2019/10/02 06:43:03;;;;;;;2.35;1.4;;;;;;;13.47;100;94142.86;;;;
2019/10/02 06:44:04;;;;;;;2.35;1.4;;;;;;;13.47;100;94142.86;;;;
2019/10/02 06:45:05;;;;;;;2.35;1.4;;;;;;;13.47;100;94142.86;;;;
2019/10/02 06:46:07;;;;;;;2.35;1.4;;;;;;;13.47;100;94142.86;;;;
2019/10/02 06:50:07;;;;;;;1.85;1.3;;;;;;;13.49;100;94157.74;;;;
2019/10/02 06:51:09;;;;;;;1.85;1.3;;;;;;;13.49;100;94157.74;;;;
2019/10/02 06:52:11;;;;;;;1.85;1.3;;;;;;;13.49;100;94157.74;;;;
2019/10/02 06:53:12;;;;;;;1.85;1.3;;;;;;;13.49;100;94157.74;;;;
2019/10/02 06:54:13;;;;;;;1.85;1.3;;;;;;;13.49;100;94157.74;;;;
2019/10/02 06:55:14;;;;;;;1.85;1.3;;;;;;;13.49;100;94157.74;;;;
2019/10/02 06:56:16;;;;;;;1.85;1.3;;;;;;;13.49;100;94157.74;;;;
2019/10/02 06:57:17;;;;;;;1.85;1.3;;;;;;;13.49;100;94157.74;;;;
2019/10/02 06:58:18;;;;;;;1.6;1.4;;;;;;;13.53;100;94176.97;;;;